Time;durP1;ratioP1;P1;durP2;ratioP2;P2;SDS_P1;SDS_P2;PMS_P1;PMS_P2;Temp;Humidity;BMP_temperature;BMP_pressure;BME280_temperature;BME280_humidity;BME280_pressure;Samples;Min_cycle;Max_cycle;Signal;HPM_P1;HPM_P2
2023/01/05 00:01:20;;;;;;;0.40;0.30;;;;;;;7.95;100.00;96259.38;5001575;28;20789;-72
2023/01/05 00:03:47;;;;;;;0.40;0.20;;;;;;;7.92;100.00;96251.78;5000753;28;24431;-71
2023/01/05 00:06:16;;;;;;;0.22;0.13;;;;;;;7.90;100.00;96257.94;4999147;28;24455;-72
2023/01/05 00:08:43;;;;;;;0.30;0.20;;;;;;;7.96;100.00;96252.47;5006563;28;20879;-72
2023/01/05 00:22:30;;;;;;;4.35;2.67;;;;;;;7.82;100.00;96259.97;5002769;28;20686;-72
2023/01/05 00:24:56;;;;;;;3.28;1.50;;;;;;;7.90;100.00;96260.50;4999183;28;20757;-72
2023/01/05 00:27:23;;;;;;;5.30;2.85;;;;;;;7.87;100.00;96258.88;4998265;28;24440;-72
2023/01/05 00:29:51;;;;;;;4.97;2.80;;;;;;;7.91;100.00;96254.44;5002373;28;24452;-71
2023/01/05 00:32:17;;;;;;;4.97;2.72;;;;;;;7.89;100.00;96257.06;5006964;28;20818;-72
2023/01/05 00:34:44;;;;;;;6.87;3.13;;;;;;;7.88;100.00;96246.81;5008122;28;24437;-72
2023/01/05 00:37:10;;;;;;;11.02;6.30;;;;;;;7.99;100.00;96244.59;5003404;28;20787;-72
2023/01/05 00:39:37;;;;;;;2.33;2.10;;;;;;;7.96;100.00;96250.72;4999952;28;24509;-72
2023/01/05 00:42:03;;;;;;;2.53;1.83;;;;;;;7.99;100.00;96239.44;5002475;28;25049;-72
2023/01/05 00:44:30;;;;;;;3.33;2.10;;;;;;;7.83;100.00;96241.03;5002359;28;20778;-72
2023/01/05 00:46:58;;;;;;;1.75;1.33;;;;;;;7.82;100.00;96242.75;5004840;28;20778;-72
2023/01/05 00:49:24;;;;;;;0.83;0.80;;;;;;;7.71;100.00;96240.69;4997149;28;20780;-72
2023/01/05 00:51:51;;;;;;;0.50;0.40;;;;;;;7.78;100.00;96230.09;5005425;28;24811;-71
2023/01/05 00:54:17;;;;;;;1.00;0.47;;;;;;;7.78;100.00;96228.34;5008320;28;20784;-72
2023/01/05 00:56:43;;;;;;;0.50;0.43;;;;;;;7.79;100.00;96221.44;5001970;28;24433;-72
2023/01/05 00:59:10;;;;;;;0.98;0.60;;;;;;;7.79;100.00;96224.88;4997252;28;24444;-72
2023/01/05 01:01:36;;;;;;;0.30;0.30;;;;;;;7.78;100.00;96219.78;5005670;28;24440;-72
2023/01/05 01:04:04;;;;;;;0.25;0.20;;;;;;;7.83;100.00;96217.84;5006898;28;24440;-72
2023/01/05 01:06:31;;;;;;;0.40;0.20;;;;;;;7.75;100.00;96213.84;5007020;28;20795;-72
2023/01/05 01:08:58;;;;;;;0.32;0.17;;;;;;;7.81;100.00;96235.09;5002882;28;20778;-72
2023/01/05 01:11:24;;;;;;;0.43;0.13;;;;;;;7.76;100.00;96227.59;5004463;28;20779;-72
2023/01/05 01:13:51;;;;;;;0.15;0.15;;;;;;;7.77;100.00;96226.66;5003625;28;24800;-72
2023/01/05 01:16:17;;;;;;;1.73;0.40;;;;;;;7.79;100.00;96226.59;5004000;28;24538;-72
2023/01/05 01:18:44;;;;;;;0.67;0.23;;;;;;;7.75;100.00;96215.59;5003164;28;25033;-72
2023/01/05 01:21:11;;;;;;;0.57;0.20;;;;;;;7.72;100.00;96226.06;5005157;28;20869;-72
2023/01/05 01:23:38;;;;;;;0.40;0.05;;;;;;;7.75;100.00;96226.75;5006193;28;20780;-72
2023/01/05 01:26:05;;;;;;;1.02;0.30;;;;;;;7.74;100.00;96230.22;5005367;28;24997;-72
2023/01/05 01:28:32;;;;;;;0.60;0.20;;;;;;;7.81;100.00;96225.63;5003785;28;24444;-72
2023/01/05 01:30:58;;;;;;;0.30;0.20;;;;;;;7.81;100.00;96227.38;5006182;28;24448;-72
2023/01/05 01:33:25;;;;;;;0.22;0.15;;;;;;;7.80;100.00;96229.13;5005853;28;20791;-72
2023/01/05 01:35:51;;;;;;;0.50;0.20;;;;;;;7.81;100.00;96222.22;5000941;28;24440;-72
2023/01/05 01:38:19;;;;;;;0.30;0.10;;;;;;;7.81;100.00;96215.31;5001742;28;24444;-72
2023/01/05 01:40:47;;;;;;;0.10;0.00;;;;;;;7.90;100.00;96225.22;5003935;28;20827;-72
2023/01/05 01:43:14;;;;;;;1.23;0.93;;;;;;;8.04;100.00;96210.84;5001516;28;21383;-72
2023/01/05 01:45:41;;;;;;;5.90;2.93;;;;;;;7.98;100.00;96217.16;5000809;28;24545;-72
2023/01/05 01:48:10;;;;;;;3.80;1.77;;;;;;;8.11;100.00;96197.59;5002930;28;20839;-72
2023/01/05 01:50:41;;;;;;;0.20;0.15;;;;;;;8.22;100.00;96194.53;5005411;28;24444;-72
2023/01/05 01:53:11;;;;;;;1.02;0.32;;;;;;;8.22;100.00;96184.22;5002990;28;24464;-72
2023/01/05 01:55:40;;;;;;;0.25;0.05;;;;;;;8.33;100.00;96178.53;5000443;28;24429;-72
2023/01/05 01:58:12;;;;;;;0.22;0.22;;;;;;;8.21;100.00;96174.81;5000231;28;20819;-72
2023/01/05 02:00:40;;;;;;;0.10;0.00;;;;;;;8.29;100.00;96175.28;5007486;28;20838;-72
2023/01/05 02:03:07;;;;;;;0.35;0.10;;;;;;;8.35;100.00;96175.00;5004505;28;20850;-72
2023/01/05 02:05:36;;;;;;;0.00;0.00;;;;;;;8.54;100.00;96181.88;5000627;28;24449;-72
2023/01/05 02:08:04;;;;;;;0.03;0.03;;;;;;;8.56;100.00;96178.31;5006010;28;24441;-72
2023/01/05 02:10:49;;;;;;;0.30;0.10;;;;;;;8.55;100.00;96168.06;5005532;28;24448;-72
2023/01/05 02:13:26;;;;;;;1.70;0.10;;;;;;;8.55;100.00;96158.56;5003899;28;20674;-72
2023/01/05 02:16:02;;;;;;;0.15;0.15;;;;;;;8.53;100.00;96168.16;5000777;28;20801;-72
2023/01/05 02:18:41;;;;;;;0.10;0.00;;;;;;;8.73;100.00;96154.25;4999996;28;21033;-72
2023/01/05 02:21:21;;;;;;;0.03;0.03;;;;;;;8.67;100.00;96155.38;4996905;28;24440;-72
2023/01/05 02:24:12;;;;;;;0.25;0.10;;;;;;;8.63;100.00;96150.44;4981195;28;24489;-72
2023/01/05 02:27:21;;;;;;;0.40;0.10;;;;;;;8.60;100.00;96155.75;4985664;28;20832;-72
2023/01/05 02:30:17;;;;;;;0.30;0.10;;;;;;;8.72;100.00;96158.59;4982645;28;20814;-72
2023/01/05 02:32:55;;;;;;;0.15;0.13;;;;;;;8.73;100.00;96159.41;4987214;28;21053;-72
2023/01/05 02:35:32;;;;;;;0.47;0.20;;;;;;;8.77;100.00;96155.78;4984015;28;21269;-72
2023/01/05 02:38:05;;;;;;;0.10;0.10;;;;;;;8.83;100.00;96163.22;4983391;28;25001;-72
2023/01/05 02:40:37;;;;;;;0.13;0.03;;;;;;;8.84;100.00;96162.31;4984620;28;20785;-72
2023/01/05 02:43:06;;;;;;;0.00;0.00;;;;;;;8.80;100.00;96155.63;4981341;28;24444;-72
2023/01/05 02:45:32;;;;;;;0.40;0.10;;;;;;;8.86;100.00;96149.31;4982963;28;24457;-72
2023/01/05 02:48:01;;;;;;;0.00;0.00;;;;;;;8.93;100.00;96148.91;4979506;28;24433;-72
2023/01/05 02:50:35;;;;;;;0.15;0.10;;;;;;;8.77;100.00;96152.38;4983414;28;24473;-72
2023/01/05 02:53:08;;;;;;;0.20;0.10;;;;;;;8.79;100.00;96155.69;4981182;28;24453;-72
2023/01/05 02:55:38;;;;;;;0.10;0.10;;;;;;;8.81;100.00;96156.47;4980503;28;24459;-72
2023/01/05 02:58:10;;;;;;;0.30;0.08;;;;;;;8.77;100.00;96152.38;4982022;28;24433;-72
2023/01/05 03:00:41;;;;;;;0.10;0.00;;;;;;;8.82;100.00;96148.63;4985049;28;24441;-72
2023/01/05 03:03:17;;;;;;;0.47;0.10;;;;;;;8.87;100.00;96146.66;4984469;28;24816;-72
2023/01/05 03:05:49;;;;;;;0.10;0.10;;;;;;;8.97;100.00;96167.69;4975473;28;24450;-72
2023/01/05 03:08:21;;;;;;;0.40;0.20;;;;;;;9.14;100.00;96172.84;4987513;28;21204;-72
2023/01/05 03:13:46;;;;;;;1.30;0.20;;;;;;;8.95;100.00;96172.13;4982490;28;20718;-72
2023/01/05 03:16:21;;;;;;;0.20;0.20;;;;;;;8.88;100.00;96166.41;4983354;28;24440;-72
2023/01/05 03:35:31;;;;;;;0.37;0.20;;;;;;;9.09;100.00;96166.25;4995122;28;24492;-72
2023/01/05 03:38:05;;;;;;;0.10;0.00;;;;;;;9.14;100.00;96164.28;5008001;28;24416;-72
2023/01/05 03:40:34;;;;;;;0.00;0.00;;;;;;;9.10;100.00;96161.00;4997956;28;24437;-72
2023/01/05 03:43:02;;;;;;;0.10;0.10;;;;;;;9.04;100.00;96156.13;5006510;28;25028;-73
2023/01/05 03:45:34;;;;;;;0.00;0.00;;;;;;;9.17;100.00;96159.78;4995553;28;24436;-72
2023/01/05 03:48:01;;;;;;;0.10;0.10;;;;;;;9.15;100.00;96156.44;5004287;28;24434;-72
2023/01/05 03:50:28;;;;;;;0.30;0.10;;;;;;;9.00;100.00;96164.13;4998824;28;24456;-73
2023/01/05 03:52:55;;;;;;;0.00;0.00;;;;;;;9.15;100.00;96161.59;5001013;28;24440;-72
2023/01/05 03:55:22;;;;;;;1.50;0.10;;;;;;;9.23;100.00;96168.94;5004803;28;20789;-72
2023/01/05 03:57:49;;;;;;;6.38;3.17;;;;;;;9.33;100.00;96164.16;5006293;28;24447;-72
2023/01/05 04:00:16;;;;;;;0.82;0.65;;;;;;;9.29;100.00;96166.06;4994420;28;24441;-72
2023/01/05 04:02:42;;;;;;;4.57;3.53;;;;;;;9.25;100.00;96156.81;5003921;28;24439;-72
2023/01/05 04:05:09;;;;;;;8.52;2.70;;;;;;;9.17;100.00;96151.19;4999309;28;24433;-72
2023/01/05 04:07:37;;;;;;;7.60;4.53;;;;;;;9.15;100.00;96148.69;5003367;28;25215;-72
2023/01/05 04:10:04;;;;;;;6.82;5.15;;;;;;;9.09;100.00;96148.19;5006123;28;24801;-72
2023/01/05 04:12:31;;;;;;;5.93;3.90;;;;;;;8.99;100.00;96157.28;4996608;28;24440;-72
2023/01/05 04:14:57;;;;;;;0.80;0.80;;;;;;;8.93;100.00;96155.84;5005217;28;24443;-72
2023/01/05 04:17:24;;;;;;;1.50;1.10;;;;;;;8.95;100.00;96170.34;5002951;28;24520;-72
2023/01/05 04:19:50;;;;;;;5.32;3.40;;;;;;;8.98;100.00;96158.22;5002749;28;20782;-72
2023/01/05 04:22:17;;;;;;;6.97;3.40;;;;;;;8.95;100.00;96164.38;5003935;28;24460;-72
2023/01/05 04:24:44;;;;;;;2.13;1.45;;;;;;;8.94;100.00;96162.69;5001771;28;25012;-72
2023/01/05 04:27:11;;;;;;;0.82;0.50;;;;;;;8.98;100.00;96164.22;5003224;28;24479;-72
2023/01/05 04:29:37;;;;;;;0.25;0.13;;;;;;;9.04;100.00;96171.63;5003182;28;24444;-72
2023/01/05 04:32:04;;;;;;;0.90;0.70;;;;;;;9.07;100.00;96165.50;4996215;28;24441;-72
2023/01/05 04:34:31;;;;;;;0.40;0.32;;;;;;;8.98;100.00;96182.31;4998861;28;24448;-72
2023/01/05 04:36:57;;;;;;;0.40;0.20;;;;;;;9.02;100.00;96164.91;4998299;28;24475;-72
2023/01/05 04:39:24;;;;;;;0.00;0.00;;;;;;;9.02;100.00;96173.47;4999314;28;20786;-72
2023/01/05 04:41:51;;;;;;;0.10;0.10;;;;;;;9.12;100.00;96155.75;4995144;28;20797;-72
2023/01/05 04:44:18;;;;;;;0.70;0.20;;;;;;;9.16;100.00;96173.63;4999482;28;25253;-72
2023/01/05 04:46:44;;;;;;;0.30;0.20;;;;;;;9.12;100.00;96166.06;5003554;28;24456;-72
2023/01/05 04:49:11;;;;;;;0.30;0.10;;;;;;;9.09;100.00;96171.44;5005576;28;24447;-72
2023/01/05 04:51:37;;;;;;;0.20;0.10;;;;;;;9.14;100.00;96174.59;5002084;28;24444;-72
2023/01/05 04:54:04;;;;;;;0.98;0.10;;;;;;;9.09;100.00;96176.59;5000860;28;20787;-72
2023/01/05 04:56:30;;;;;;;0.00;0.00;;;;;;;9.14;100.00;96182.34;5001444;28;24437;-72
2023/01/05 04:58:58;;;;;;;0.08;0.08;;;;;;;9.10;100.00;96180.84;4993274;28;24444;-72
2023/01/05 05:01:25;;;;;;;1.05;0.40;;;;;;;9.00;100.00;96183.03;4995470;28;24449;-72
2023/01/05 05:03:51;;;;;;;0.70;0.40;;;;;;;9.01;100.00;96181.28;5003802;28;24807;-72
2023/01/05 05:06:18;;;;;;;0.00;0.00;;;;;;;9.07;100.00;96173.25;4998634;28;25053;-72
2023/01/05 05:08:44;;;;;;;0.20;0.00;;;;;;;9.03;100.00;96169.16;4998525;28;24455;-72
2023/01/05 05:11:11;;;;;;;0.13;0.10;;;;;;;9.14;100.00;96192.69;4999260;28;24444;-72
2023/01/05 05:13:37;;;;;;;0.05;0.00;;;;;;;9.19;100.00;96181.19;4996468;28;24433;-72
2023/01/05 05:16:06;;;;;;;1.00;0.25;;;;;;;9.22;100.00;96190.56;5006798;28;24459;-72
2023/01/05 05:18:33;;;;;;;0.95;0.10;;;;;;;9.28;100.00;96194.59;5005693;28;20772;-72
2023/01/05 05:20:59;;;;;;;0.75;0.25;;;;;;;9.22;100.00;96195.72;4999139;28;20786;-73
2023/01/05 05:23:26;;;;;;;0.40;0.20;;;;;;;9.16;100.00;96190.88;4996734;28;25194;-72
2023/01/05 05:25:53;;;;;;;0.22;0.10;;;;;;;9.10;100.00;96193.75;5003240;28;24436;-73
2023/01/05 05:28:21;;;;;;;0.15;0.10;;;;;;;9.12;100.00;96202.25;5004779;28;24440;-72
2023/01/05 05:30:48;;;;;;;0.20;0.10;;;;;;;9.06;100.00;96198.25;5007607;28;24452;-72
2023/01/05 05:33:16;;;;;;;0.20;0.05;;;;;;;8.94;100.00;96204.03;5002111;28;24439;-73
2023/01/05 05:35:42;;;;;;;0.08;0.00;;;;;;;9.12;100.00;96208.28;5001233;28;25001;-72
2023/01/05 05:38:09;;;;;;;0.00;0.00;;;;;;;8.96;100.00;96213.34;5000111;28;24978;-72
2023/01/05 05:40:35;;;;;;;0.10;0.00;;;;;;;8.98;100.00;96215.06;4997470;28;24464;-72
2023/01/05 05:43:02;;;;;;;0.00;0.00;;;;;;;9.08;100.00;96214.50;5001813;28;24990;-72
2023/01/05 05:45:28;;;;;;;0.00;0.00;;;;;;;9.24;100.00;96226.69;4999135;28;24803;-73
2023/01/05 05:47:54;;;;;;;0.20;0.00;;;;;;;9.26;100.00;96223.06;5011570;28;24899;-72
2023/01/05 05:50:22;;;;;;;0.00;0.00;;;;;;;9.37;100.00;96225.97;5011321;28;21137;-72
2023/01/05 05:52:49;;;;;;;0.00;0.00;;;;;;;9.36;100.00;96226.88;5001214;28;24467;-72
2023/01/05 05:55:16;;;;;;;0.80;0.10;;;;;;;9.33;100.00;96231.38;5008039;28;20788;-73
2023/01/05 05:57:42;;;;;;;0.00;0.00;;;;;;;9.44;100.00;96244.59;4999052;28;24433;-72
2023/01/05 06:00:10;;;;;;;0.05;0.05;;;;;;;9.38;100.00;96239.72;5002311;28;24443;-72
2023/01/05 06:02:36;;;;;;;0.05;0.00;;;;;;;9.38;100.00;96252.63;4997644;28;25003;-72
2023/01/05 06:05:03;;;;;;;0.08;0.08;;;;;;;9.16;100.00;96253.72;5002681;28;20819;-72
2023/01/05 06:07:30;;;;;;;0.20;0.10;;;;;;;9.05;100.00;96252.56;4996793;28;24452;-72
2023/01/05 06:09:57;;;;;;;0.07;0.00;;;;;;;9.04;100.00;96262.06;5004301;28;20816;-72
2023/01/05 06:12:23;;;;;;;0.68;0.10;;;;;;;8.98;100.00;96259.81;4998392;28;20782;-72
2023/01/05 06:14:50;;;;;;;0.45;0.10;;;;;;;8.89;100.00;96263.66;4997999;28;20780;-72
2023/01/05 06:17:16;;;;;;;0.60;0.20;;;;;;;8.85;100.00;96272.47;5003384;28;20780;-72
2023/01/05 06:19:43;;;;;;;0.60;0.15;;;;;;;8.81;100.00;96278.69;5010387;28;21544;-72
2023/01/05 06:22:09;;;;;;;0.40;0.10;;;;;;;8.77;100.00;96269.41;5007403;28;24981;-72
2023/01/05 06:24:37;;;;;;;2.20;0.10;;;;;;;8.75;100.00;96276.41;5005115;28;24979;-71
2023/01/05 06:27:03;;;;;;;0.08;0.00;;;;;;;8.72;100.00;96284.28;5001222;28;21370;-72
2023/01/05 06:29:30;;;;;;;0.30;0.05;;;;;;;8.72;100.00;96281.72;5006557;28;20787;-72
2023/01/05 06:31:56;;;;;;;0.30;0.08;;;;;;;8.71;100.00;96282.59;5009148;28;24440;-72
2023/01/05 06:34:23;;;;;;;0.30;0.10;;;;;;;8.69;100.00;96287.03;5005927;28;24440;-72
2023/01/05 06:36:49;;;;;;;0.20;0.08;;;;;;;8.64;100.00;96299.28;5000531;28;24819;-72
2023/01/05 06:39:16;;;;;;;0.28;0.17;;;;;;;8.62;100.00;96298.53;5005009;28;24459;-69
2023/01/05 06:41:44;;;;;;;0.30;0.10;;;;;;;8.58;100.00;96290.09;5008299;28;24443;-71
2023/01/05 06:44:10;;;;;;;0.20;0.10;;;;;;;8.62;100.00;96289.03;5006113;28;20798;-72
2023/01/05 06:46:37;;;;;;;1.25;0.30;;;;;;;8.69;100.00;96316.25;4999396;28;20866;-72
2023/01/05 06:49:03;;;;;;;1.10;0.30;;;;;;;8.65;100.00;96306.16;5000801;28;20803;-72
2023/01/05 06:51:30;;;;;;;0.80;0.40;;;;;;;8.59;100.00;96307.25;5002846;28;25023;-73
2023/01/05 06:53:56;;;;;;;1.13;0.30;;;;;;;8.52;100.00;96310.19;5006327;28;25013;-72
2023/01/05 06:56:23;;;;;;;1.33;0.30;;;;;;;8.46;100.00;96309.56;4996080;28;24986;-72
2023/01/05 06:58:50;;;;;;;2.03;0.52;;;;;;;8.61;100.00;96325.28;5001640;28;24453;-72
2023/01/05 07:01:17;;;;;;;1.02;0.40;;;;;;;8.65;100.00;96324.22;5001516;28;20788;-73
2023/01/05 07:03:43;;;;;;;1.67;0.50;;;;;;;8.66;100.00;96329.31;5004067;28;24439;-72
2023/01/05 07:06:13;;;;;;;1.13;0.50;;;;;;;8.76;100.00;96334.06;5005959;28;24440;-72
2023/01/05 07:08:40;;;;;;;2.28;0.68;;;;;;;8.68;100.00;96337.00;5002526;28;20829;-72
2023/01/05 07:11:06;;;;;;;1.90;0.70;;;;;;;8.71;100.00;96336.81;4999311;28;24504;-72
2023/01/05 07:13:33;;;;;;;1.40;0.43;;;;;;;8.73;100.00;96338.44;5006960;28;24439;-73
2023/01/05 07:16:00;;;;;;;1.60;0.60;;;;;;;8.71;100.00;96344.56;5008183;28;24459;-73
2023/01/05 07:18:27;;;;;;;3.25;0.80;;;;;;;8.62;100.00;96347.59;5005734;28;24436;-73
2023/01/05 07:20:53;;;;;;;6.75;0.77;;;;;;;8.70;100.00;96368.72;5008531;28;24463;-73
2023/01/05 07:23:20;;;;;;;1.98;0.50;;;;;;;8.70;100.00;96358.41;5007828;28;24441;-72
2023/01/05 07:25:46;;;;;;;4.05;0.90;;;;;;;8.69;100.00;96360.16;5001272;28;24815;-73
2023/01/05 07:28:13;;;;;;;3.03;0.82;;;;;;;8.69;100.00;96372.22;5002223;28;24479;-73
2023/01/05 07:30:39;;;;;;;3.28;0.80;;;;;;;8.68;100.00;96373.16;4999925;28;24448;-74
2023/01/05 07:33:07;;;;;;;2.60;1.00;;;;;;;8.63;100.00;96373.34;5004224;28;24507;-74
2023/01/05 07:35:33;;;;;;;3.53;1.00;;;;;;;8.60;100.00;96378.66;4995828;28;20816;-74
2023/01/05 07:38:00;;;;;;;3.13;1.10;;;;;;;8.69;100.00;96385.97;5000832;28;24432;-74
2023/01/05 07:40:27;;;;;;;2.73;1.07;;;;;;;8.67;100.00;96374.88;4996453;28;24435;-74
2023/01/05 07:42:54;;;;;;;3.75;1.00;;;;;;;8.65;100.00;96378.44;5004411;28;21157;-72
2023/01/05 07:45:21;;;;;;;2.05;0.93;;;;;;;8.62;100.00;96383.75;4996480;28;20782;-68
2023/01/05 07:47:47;;;;;;;3.67;1.30;;;;;;;8.65;100.00;96388.78;4996025;28;20789;-72
2023/01/05 07:50:15;;;;;;;9.47;1.53;;;;;;;8.59;100.00;96371.81;4999445;28;25058;-72
2023/01/05 07:52:41;;;;;;;4.57;1.75;;;;;;;8.59;100.00;96386.47;4999854;28;20795;-72
2023/01/05 07:55:08;;;;;;;5.93;1.50;;;;;;;8.53;100.00;96384.16;4996205;28;24447;-72
2023/01/05 07:57:35;;;;;;;6.47;1.60;;;;;;;8.58;100.00;96393.38;5002509;28;24432;-72
2023/01/05 08:00:02;;;;;;;6.20;1.90;;;;;;;8.55;100.00;96383.19;4998235;28;20797;-72
2023/01/05 08:02:28;;;;;;;7.05;1.90;;;;;;;8.53;100.00;96390.16;5002456;28;24432;-72
2023/01/05 08:04:55;;;;;;;5.97;1.73;;;;;;;8.57;100.00;96396.88;5006824;28;24436;-73
2023/01/05 08:07:22;;;;;;;5.57;1.88;;;;;;;8.52;100.00;96405.72;5002961;28;24449;-73
2023/01/05 08:13:58;;;;;;;7.55;1.80;;;;;;;8.39;100.00;96421.75;4994316;28;24519;-73
2023/01/05 08:15:19;;;;;;;9.13;1.90;;;;;;;8.36;100.00;96426.19;5000367;28;24963;-72
2023/01/05 08:17:46;;;;;;;5.80;2.00;;;;;;;8.39;100.00;96431.25;4997359;28;24455;-73
2023/01/05 08:20:12;;;;;;;5.70;2.00;;;;;;;8.36;100.00;96433.91;5000673;28;24460;-73
2023/01/05 08:22:40;;;;;;;9.10;2.10;;;;;;;8.37;100.00;96433.00;5001071;28;20813;-72
2023/01/05 08:25:07;;;;;;;8.35;2.38;;;;;;;8.42;100.00;96441.44;4999310;28;20841;-73
2023/01/05 08:27:34;;;;;;;15.70;2.33;;;;;;;8.41;100.00;96432.81;4998914;28;24894;-74
2023/01/05 08:30:00;;;;;;;5.43;1.73;;;;;;;8.35;100.00;96433.09;4998097;28;24444;-73
2023/01/05 08:32:27;;;;;;;10.27;2.30;;;;;;;8.35;100.00;96443.41;4998669;28;24436;-73
2023/01/05 08:34:53;;;;;;;13.40;2.20;;;;;;;8.31;100.00;96448.78;5001372;28;24855;-73
2023/01/05 08:37:20;;;;;;;9.10;2.28;;;;;;;8.38;100.00;96445.03;5006848;28;21158;-74
2023/01/05 08:39:47;;;;;;;9.55;2.70;;;;;;;8.33;100.00;96454.69;4999126;28;20792;-74
2023/01/05 08:42:14;;;;;;;11.00;2.97;;;;;;;8.31;100.00;96443.63;4999475;28;20780;-73
2023/01/05 08:44:40;;;;;;;9.07;2.50;;;;;;;8.27;100.00;96452.34;5001041;28;20854;-74
2023/01/05 08:47:07;;;;;;;12.00;2.67;;;;;;;8.24;100.00;96458.50;4998109;28;20791;-74
2023/01/05 08:49:34;;;;;;;7.75;2.45;;;;;;;8.29;100.00;96458.31;4999499;28;24444;-74
2023/01/05 08:52:00;;;;;;;9.90;3.30;;;;;;;8.27;100.00;96465.25;5007869;28;25083;-73
2023/01/05 08:54:26;;;;;;;13.10;2.72;;;;;;;8.22;100.00;96461.13;5004776;28;25040;-73
2023/01/05 08:56:54;;;;;;;12.95;3.03;;;;;;;8.22;100.00;96468.03;5006296;28;20787;-75
2023/01/05 08:59:21;;;;;;;9.93;2.93;;;;;;;8.21;100.00;96471.53;5003151;28;20785;-73
2023/01/05 09:01:48;;;;;;;11.37;2.97;;;;;;;8.27;100.00;96476.44;5000778;28;24823;-73
2023/01/05 09:04:14;;;;;;;15.98;3.05;;;;;;;8.18;100.00;96471.66;5003191;28;20812;-73
2023/01/05 09:06:41;;;;;;;12.82;3.13;;;;;;;8.17;100.00;96486.31;5005129;28;24440;-73
2023/01/05 09:09:07;;;;;;;9.15;2.95;;;;;;;8.18;100.00;96495.72;5012760;28;24456;-72
2023/01/05 09:11:34;;;;;;;14.75;3.92;;;;;;;8.21;100.00;96482.69;5007161;28;24796;-73
2023/01/05 09:14:02;;;;;;;18.67;4.18;;;;;;;8.15;100.00;96500.16;5000177;28;24432;-72
2023/01/05 09:16:31;;;;;;;11.52;3.30;;;;;;;8.10;100.00;96505.53;5010668;28;20815;-72
2023/01/05 09:18:58;;;;;;;13.30;3.17;;;;;;;8.19;100.00;96509.47;5012535;28;20817;-73
2023/01/05 09:21:25;;;;;;;16.63;3.10;;;;;;;8.24;100.00;96516.13;5006998;28;20780;-73
2023/01/05 09:23:51;;;;;;;15.77;3.85;;;;;;;8.15;100.00;96519.06;5001300;28;24440;-73
2023/01/05 09:26:18;;;;;;;13.57;3.80;;;;;;;8.14;100.00;96521.72;5007848;28;21330;-73
2023/01/05 09:28:45;;;;;;;10.70;3.37;;;;;;;8.20;100.00;96536.97;5005767;28;20787;-73
2023/01/05 09:31:14;;;;;;;15.57;3.45;;;;;;;8.20;100.00;96532.63;5006242;28;24444;-73
2023/01/05 09:33:41;;;;;;;12.50;3.38;;;;;;;8.32;100.00;96523.53;5006657;28;20732;-73
2023/01/05 09:36:09;;;;;;;13.23;2.83;;;;;;;8.24;100.00;96518.69;5010109;28;20785;-72
2023/01/05 09:38:36;;;;;;;17.63;3.53;;;;;;;8.28;100.00;96534.91;5004530;28;24990;-72
2023/01/05 09:41:07;;;;;;;11.53;3.27;;;;;;;8.33;100.00;96537.28;5008693;28;20804;-73
2023/01/05 09:43:36;;;;;;;10.80;3.05;;;;;;;8.34;100.00;96528.63;5005767;28;20737;-73
2023/01/05 09:46:06;;;;;;;12.65;3.20;;;;;;;8.34;100.00;96531.22;5003985;28;20773;-72
2023/01/05 09:48:40;;;;;;;14.20;2.92;;;;;;;8.42;100.00;96542.94;5001238;28;20746;-74
2023/01/05 09:51:08;;;;;;;13.40;3.33;;;;;;;8.36;100.00;96537.16;5001831;28;20782;-75
2023/01/05 09:53:35;;;;;;;10.30;2.83;;;;;;;8.44;100.00;96537.69;5003891;28;20852;-74
2023/01/05 09:56:02;;;;;;;19.33;3.20;;;;;;;8.41;100.00;96535.25;5005705;28;20774;-74
2023/01/05 09:58:35;;;;;;;11.32;2.88;;;;;;;8.45;100.00;96536.78;5003618;28;24439;-74
2023/01/05 10:01:09;;;;;;;7.90;2.67;;;;;;;8.58;100.00;96542.28;5001302;28;21324;-75
2023/01/05 10:03:42;;;;;;;8.60;2.78;;;;;;;8.60;100.00;96540.47;5002642;28;25009;-74
2023/01/05 10:06:13;;;;;;;9.73;2.67;;;;;;;8.58;100.00;96534.53;5007718;28;21358;-74
2023/01/05 10:08:44;;;;;;;10.93;2.92;;;;;;;8.60;100.00;96527.56;5000814;28;21167;-74
2023/01/05 10:14:05;;;;;;;14.38;2.58;;;;;;;8.61;100.00;96526.66;5001637;28;20712;-73
2023/01/05 10:16:32;;;;;;;13.48;3.05;;;;;;;8.62;100.00;96520.59;5000046;28;20666;-73
2023/01/05 10:19:00;;;;;;;11.30;3.03;;;;;;;8.59;100.00;96518.97;5004881;28;24846;-72
2023/01/05 10:21:37;;;;;;;11.30;2.72;;;;;;;8.58;100.00;96527.63;5004907;28;20810;-72
2023/01/05 10:24:24;;;;;;;12.65;3.20;;;;;;;8.66;100.00;96529.88;5009210;28;20695;-72
2023/01/05 10:26:58;;;;;;;13.68;3.35;;;;;;;8.65;100.00;96523.88;5003967;28;20776;-73
2023/01/05 10:29:31;;;;;;;13.18;2.88;;;;;;;8.70;100.00;96528.84;5004782;28;20685;-73
2023/01/05 10:32:11;;;;;;;15.60;2.95;;;;;;;8.64;100.00;96519.63;5007608;28;20732;-73
2023/01/05 10:34:54;;;;;;;13.23;3.13;;;;;;;8.70;100.00;96521.94;5004988;28;25027;-73
2023/01/05 10:37:35;;;;;;;11.35;3.28;;;;;;;8.82;100.00;96522.31;5001028;28;25002;-73
2023/01/05 10:40:12;;;;;;;20.33;3.47;;;;;;;8.84;100.00;96517.91;4997135;28;21347;-72
2023/01/05 10:42:49;;;;;;;11.45;3.28;;;;;;;8.81;100.00;96534.38;5010988;28;20732;-72
2023/01/05 10:45:17;;;;;;;12.15;3.03;;;;;;;8.82;100.00;96517.97;4996714;28;20776;-72
2023/01/05 10:47:46;;;;;;;11.15;3.05;;;;;;;8.91;100.00;96527.09;5002507;28;24456;-73
2023/01/05 10:50:34;;;;;;;12.70;2.92;;;;;;;8.87;100.00;96523.78;4996663;28;20792;-73
2023/01/05 10:53:08;;;;;;;12.52;3.05;;;;;;;8.92;100.00;96521.84;5007156;28;24498;-73
2023/01/05 10:55:44;;;;;;;11.57;3.15;;;;;;;8.89;100.00;96519.38;4997714;28;20664;-73
2023/01/05 10:58:21;;;;;;;17.90;2.85;;;;;;;8.86;100.00;96516.09;4996197;28;24433;-73
2023/01/05 11:00:49;;;;;;;13.73;3.40;;;;;;;8.84;100.00;96513.59;5003094;28;25005;-72
2023/01/05 11:03:17;;;;;;;12.10;2.97;;;;;;;8.85;100.00;96510.09;5002495;28;24443;-73
2023/01/05 11:05:47;;;;;;;8.07;2.90;;;;;;;8.93;100.00;96513.16;4998373;28;20872;-73
2023/01/05 11:08:16;;;;;;;13.90;3.05;;;;;;;8.86;100.00;96510.94;5008029;28;24472;-73
2023/01/05 11:10:50;;;;;;;14.43;3.60;;;;;;;8.82;100.00;96506.81;5000357;28;24429;-72
2023/01/05 11:13:29;;;;;;;13.02;3.47;;;;;;;8.88;100.00;96515.13;5004494;28;24440;-73
2023/01/05 11:15:59;;;;;;;18.40;3.28;;;;;;;8.90;100.00;96517.66;4998245;28;24486;-73
2023/01/05 11:18:31;;;;;;;9.50;2.97;;;;;;;8.84;100.00;96516.16;4995775;28;25029;-73
2023/01/05 11:21:16;;;;;;;13.90;4.97;;;;;;;8.92;100.00;96502.91;5004139;28;20778;-72
2023/01/05 11:23:44;;;;;;;12.55;3.55;;;;;;;8.95;100.00;96513.13;4999411;28;24811;-73
2023/01/05 11:26:21;;;;;;;10.77;3.08;;;;;;;8.90;100.00;96509.91;5000021;28;24440;-73
2023/01/05 11:28:58;;;;;;;15.23;3.70;;;;;;;8.90;100.00;96513.34;4994823;28;24537;-73
2023/01/05 11:31:27;;;;;;;14.77;3.30;;;;;;;8.95;100.00;96513.13;5001832;28;20793;-72
2023/01/05 11:33:57;;;;;;;11.43;3.35;;;;;;;8.93;100.00;96509.75;4995097;28;24461;-72
2023/01/05 11:36:25;;;;;;;9.95;2.88;;;;;;;8.93;100.00;96510.59;4999129;28;24468;-72
2023/01/05 11:38:54;;;;;;;13.00;3.33;;;;;;;8.94;100.00;96516.63;4996082;28;24433;-72
2023/01/05 11:41:22;;;;;;;11.65;2.97;;;;;;;8.94;100.00;96520.03;4996160;28;24440;-72
2023/01/05 11:43:50;;;;;;;15.27;3.95;;;;;;;8.86;100.00;96514.38;4997081;28;24444;-71
2023/01/05 11:46:16;;;;;;;14.43;3.50;;;;;;;8.89;100.00;96511.63;5000391;28;24811;-72
2023/01/05 11:48:51;;;;;;;17.00;3.17;;;;;;;8.92;100.00;96521.00;4993706;28;21334;-71
2023/01/05 11:51:35;;;;;;;11.93;3.28;;;;;;;8.88;100.00;96516.88;5001224;28;21113;-72
2023/01/05 11:54:01;;;;;;;14.40;4.40;;;;;;;8.98;100.00;96519.91;4995674;28;20803;-71
2023/01/05 11:56:28;;;;;;;11.07;3.67;;;;;;;9.01;100.00;96510.28;5000446;28;24432;-71
2023/01/05 11:58:56;;;;;;;12.67;3.47;;;;;;;8.91;100.00;96509.00;4996668;28;24518;-72
2023/01/05 12:01:53;;;;;;;16.02;5.20;;;;;;;8.99;100.00;96506.91;4998943;28;20791;-72
2023/01/05 12:04:35;;;;;;;10.55;3.30;;;;;;;8.98;100.00;96513.00;4995046;28;24433;-71
2023/01/05 12:07:14;;;;;;;13.75;3.10;;;;;;;8.93;100.00;96520.91;5005114;28;24482;-71
2023/01/05 12:09:45;;;;;;;26.27;4.05;;;;;;;8.94;100.00;96517.44;5001375;28;24459;-71
2023/01/05 12:12:28;;;;;;;11.60;3.00;;;;;;;9.05;100.00;96516.13;4999594;28;24447;-73
2023/01/05 12:15:23;;;;;;;14.32;3.33;;;;;;;9.02;100.00;96518.84;5001813;28;24862;-72
2023/01/05 12:18:02;;;;;;;12.60;3.20;;;;;;;8.86;100.00;96529.00;4998596;28;24456;-71